createdAt,value
2023-05-14T00:01:29.271Z,95.56
2023-05-14T00:03:56.498Z,95.43
2023-05-14T00:06:23.278Z,95.71
2023-05-14T00:08:50.207Z,96.08
2023-05-14T00:11:17.186Z,96.25
2023-05-14T00:13:44.078Z,96.37
2023-05-14T00:16:11.925Z,95.80
2023-05-14T00:18:39.054Z,95.74
2023-05-14T00:21:06.085Z,95.68
2023-05-14T00:23:33.120Z,95.63
2023-05-14T00:25:59.974Z,96.23
2023-05-14T00:28:26.919Z,96.15
2023-05-14T00:30:53.963Z,96.41
2023-05-14T00:33:20.790Z,96.43
2023-05-14T00:35:47.995Z,96.75
2023-05-14T00:38:19.211Z,96.80
2023-05-14T00:40:51.448Z,97.46
2023-05-14T00:43:19.740Z,96.86
2023-05-14T00:45:47.810Z,97.37
2023-05-14T00:48:14.759Z,97.55
2023-05-14T00:50:42.318Z,98.05
2023-05-14T00:53:10.745Z,98.40
2023-05-14T00:55:42.376Z,98.31
2023-05-14T00:58:13.720Z,98.06
2023-05-14T01:00:41.809Z,97.87
2023-05-14T01:03:09.738Z,98.30
2023-05-14T01:05:47.393Z,98.27
2023-05-14T01:08:43.304Z,98.02
2023-05-14T01:11:20.058Z,97.43
2023-05-14T01:14:17.858Z,97.54
2023-05-14T01:16:46.314Z,99.10
2023-05-14T01:19:27.574Z,98.44
2023-05-14T01:21:54.553Z,97.72
2023-05-14T01:24:21.329Z,97.78
2023-05-14T01:26:48.275Z,97.27
2023-05-14T01:29:28.556Z,97.69
2023-05-14T01:31:58.911Z,98.34
2023-05-14T01:34:28.454Z,97.62
2023-05-14T01:36:57.441Z,97.28
2023-05-14T01:39:26.859Z,97.41
2023-05-14T01:41:55.279Z,97.04
2023-05-14T01:44:22.297Z,97.08
2023-05-14T01:46:49.218Z,97.41
2023-05-14T01:49:18.160Z,98.10
2023-05-14T01:51:45.879Z,97.33
2023-05-14T01:54:12.788Z,96.77
2023-05-14T01:56:39.796Z,96.54
2023-05-14T01:59:07.056Z,97.21
2023-05-14T02:01:34.275Z,97.53
2023-05-14T02:04:01.289Z,97.83
2023-05-14T02:06:28.277Z,98.72
2023-05-14T02:08:56.131Z,98.57
2023-05-14T02:11:23.146Z,98.91
2023-05-14T02:13:50.113Z,98.23
2023-05-14T02:16:17.266Z,96.89
2023-05-14T02:18:44.119Z,97.17
2023-05-14T02:21:11.056Z,97.57
2023-05-14T02:23:41.441Z,97.42
2023-05-14T02:26:10.963Z,97.34
2023-05-14T02:28:38.200Z,97.20
2023-05-14T02:31:05.140Z,97.59
2023-05-14T02:33:32.274Z,98.21
2023-05-14T02:35:59.190Z,98.59
2023-05-14T02:38:26.800Z,98.68
2023-05-14T02:40:56.350Z,98.92
2023-05-14T02:43:23.554Z,98.54
2023-05-14T02:45:50.412Z,98.90
2023-05-14T02:48:17.544Z,99.69
2023-05-14T02:50:44.394Z,99.60
2023-05-14T02:53:11.701Z,99.42
2023-05-14T02:55:38.619Z,99.84
2023-05-14T02:58:05.733Z,100.00
2023-05-14T03:00:32.786Z,100.00
2023-05-14T03:03:00.231Z,100.00
2023-05-14T03:05:27.625Z,100.00
2023-05-14T03:07:55.065Z,99.46
2023-05-14T03:10:22.032Z,98.80
2023-05-14T03:12:49.602Z,98.29
2023-05-14T03:15:16.376Z,98.56
2023-05-14T03:17:43.617Z,98.22
2023-05-14T03:20:11.405Z,97.81
2023-05-14T03:22:38.255Z,98.11
2023-05-14T03:25:05.693Z,98.72
2023-05-14T03:27:33.868Z,97.96
2023-05-14T03:30:01.003Z,97.20
2023-05-14T03:32:27.907Z,96.47
2023-05-14T03:34:55.035Z,96.93
2023-05-14T03:37:22.113Z,96.79
2023-05-14T03:39:48.980Z,96.92
2023-05-14T03:42:15.944Z,96.97
2023-05-14T03:44:42.860Z,96.41
2023-05-14T03:47:09.677Z,96.00
2023-05-14T03:49:37.022Z,96.79
2023-05-14T03:52:04.621Z,96.73
2023-05-14T03:54:31.848Z,96.71
2023-05-14T03:56:59.848Z,96.19
2023-05-14T03:59:26.717Z,95.70
2023-05-14T04:01:54.107Z,94.38
2023-05-14T04:04:21.306Z,94.40
2023-05-14T04:06:48.227Z,94.51
2023-05-14T04:09:15.045Z,93.77
2023-05-14T04:11:41.953Z,93.56
2023-05-14T04:14:09.243Z,92.90
2023-05-14T04:16:36.064Z,92.44
2023-05-14T04:19:06.722Z,91.83
2023-05-14T04:21:33.719Z,90.62
2023-05-14T04:24:00.631Z,89.07
2023-05-14T04:26:27.511Z,86.17
2023-05-14T04:28:54.500Z,84.42
2023-05-14T04:31:21.648Z,84.51
2023-05-14T04:33:48.671Z,84.83
2023-05-14T04:36:16.135Z,84.07
2023-05-14T04:38:43.103Z,83.71
2023-05-14T04:41:10.198Z,82.61
2023-05-14T04:43:37.010Z,80.76
2023-05-14T04:46:04.038Z,79.88
2023-05-14T04:48:31.108Z,79.08
2023-05-14T04:50:58.251Z,80.65
2023-05-14T04:53:25.226Z,79.40
2023-05-14T04:55:52.203Z,79.50
2023-05-14T04:58:19.369Z,79.99
2023-05-14T05:00:46.428Z,78.61
2023-05-14T05:03:13.716Z,78.63
2023-05-14T05:05:40.888Z,78.78
2023-05-14T05:08:07.789Z,77.60
2023-05-14T05:10:34.840Z,75.08
2023-05-14T05:13:03.138Z,75.02
2023-05-14T05:15:30.031Z,73.79
2023-05-14T05:17:57.215Z,72.65
2023-05-14T05:20:25.285Z,71.22
2023-05-14T05:22:52.261Z,71.25
2023-05-14T05:25:19.173Z,67.53
2023-05-14T05:27:46.184Z,66.46
2023-05-14T05:30:13.443Z,64.91
2023-05-14T05:32:40.742Z,62.84
2023-05-14T05:35:08.090Z,63.58
2023-05-14T05:37:35.030Z,62.04
2023-05-14T05:40:01.993Z,61.06
2023-05-14T05:42:28.831Z,61.00
2023-05-14T05:44:56.310Z,60.42
2023-05-14T05:47:23.292Z,61.07
2023-05-14T05:49:50.456Z,59.50
2023-05-14T05:52:17.433Z,59.45
2023-05-14T05:54:44.500Z,59.40
2023-05-14T05:57:11.421Z,57.85
2023-05-14T05:59:38.573Z,56.38
2023-05-14T06:02:05.938Z,57.60
2023-05-14T06:04:32.985Z,57.97
2023-05-14T06:06:59.904Z,57.29
2023-05-14T06:09:26.948Z,56.08
2023-05-14T06:11:53.691Z,57.05
2023-05-14T06:14:20.734Z,55.89
2023-05-14T06:16:47.634Z,55.49
2023-05-14T06:19:15.258Z,56.40
2023-05-14T06:21:42.216Z,55.09
2023-05-14T06:24:09.408Z,56.03
2023-05-14T06:26:36.524Z,56.77
2023-05-14T06:29:03.300Z,54.39
2023-05-14T06:31:30.428Z,56.01
2023-05-14T06:33:57.452Z,55.32
2023-05-14T06:36:24.468Z,53.73
2023-05-14T06:38:51.299Z,53.96
2023-05-14T06:41:18.364Z,53.44
2023-05-14T06:43:45.205Z,53.45
2023-05-14T06:46:12.387Z,53.86
2023-05-14T06:48:39.239Z,53.89
2023-05-14T06:51:06.543Z,53.06
2023-05-14T06:53:33.643Z,52.19
2023-05-14T06:56:00.785Z,52.18
2023-05-14T06:58:27.694Z,52.26
2023-05-14T07:00:54.757Z,52.58
2023-05-14T07:03:22.338Z,51.19
2023-05-14T07:05:49.497Z,49.65
2023-05-14T07:08:16.421Z,47.21
2023-05-14T07:10:43.249Z,46.33
2023-05-14T07:13:10.238Z,48.06
2023-05-14T07:15:37.219Z,46.04
2023-05-14T07:18:04.376Z,45.93
2023-05-14T07:20:31.470Z,46.30
2023-05-14T07:22:58.347Z,46.51
2023-05-14T07:25:25.455Z,47.66
2023-05-14T07:27:52.465Z,47.58
2023-05-14T07:30:19.920Z,46.86
2023-05-14T07:32:46.867Z,46.73
2023-05-14T07:35:13.931Z,46.79
2023-05-14T07:37:41.029Z,47.21
2023-05-14T07:40:08.509Z,47.59
2023-05-14T07:42:37.280Z,47.37
2023-05-14T07:45:05.789Z,47.11
2023-05-14T07:47:33.020Z,46.60
2023-05-14T07:50:00.525Z,45.76
2023-05-14T07:52:27.539Z,46.11
2023-05-14T07:54:55.261Z,44.85
2023-05-14T07:57:22.340Z,44.63
2023-05-14T07:59:49.883Z,44.17
2023-05-14T08:02:17.746Z,44.35
2023-05-14T08:04:45.191Z,44.20
2023-05-14T08:07:12.133Z,44.10
2023-05-14T08:09:39.456Z,44.11
2023-05-14T08:12:06.857Z,44.00
2023-05-14T08:14:33.788Z,43.31
2023-05-14T08:17:00.813Z,42.93
2023-05-14T08:19:28.074Z,42.23
2023-05-14T08:21:54.950Z,43.05
2023-05-14T08:24:21.823Z,43.21
2023-05-14T08:26:48.954Z,42.78
2023-05-14T08:29:16.784Z,43.20
2023-05-14T08:31:44.070Z,43.53
2023-05-14T08:34:11.015Z,43.88
2023-05-14T08:36:39.078Z,44.56
2023-05-14T08:39:07.761Z,45.01
2023-05-14T08:41:35.784Z,45.07
2023-05-14T08:44:05.833Z,43.02
2023-05-14T08:46:33.987Z,43.06
2023-05-14T08:49:09.137Z,42.59
2023-05-14T08:51:36.547Z,41.62
2023-05-14T08:54:04.173Z,41.09
2023-05-14T08:56:33.471Z,40.45
2023-05-14T08:59:01.072Z,41.30
2023-05-14T09:01:29.053Z,40.34
2023-05-14T09:04:21.223Z,40.38
2023-05-14T09:06:53.750Z,39.60
2023-05-14T09:09:47.274Z,40.02
2023-05-14T09:12:14.884Z,40.18
2023-05-14T09:14:41.979Z,40.28
2023-05-14T09:17:09.265Z,40.41
2023-05-14T09:19:36.180Z,41.01
2023-05-14T09:22:09.298Z,39.55
2023-05-14T09:24:36.385Z,39.77
2023-05-14T09:27:04.333Z,39.98
2023-05-14T09:29:31.835Z,40.78
2023-05-14T09:32:00.702Z,40.20
2023-05-14T09:34:29.499Z,40.67
2023-05-14T09:37:01.396Z,40.78
2023-05-14T09:39:29.341Z,40.93
2023-05-14T09:41:57.026Z,41.30
2023-05-14T09:44:24.912Z,40.59
2023-05-14T09:46:53.066Z,41.18
2023-05-14T09:49:20.452Z,42.53
2023-05-14T09:51:49.608Z,41.82
2023-05-14T09:54:16.708Z,42.30
2023-05-14T09:56:44.273Z,42.93
2023-05-14T09:59:11.568Z,42.31
2023-05-14T10:01:39.910Z,41.84
2023-05-14T10:04:07.853Z,41.38
2023-05-14T10:06:37.937Z,41.37
2023-05-14T10:09:10.268Z,40.23
2023-05-14T10:11:39.284Z,40.75
2023-05-14T10:14:20.841Z,41.65
2023-05-14T10:16:50.997Z,41.65
2023-05-14T10:19:21.135Z,41.46
2023-05-14T10:22:04.486Z,41.83
2023-05-14T10:24:32.471Z,42.78
2023-05-14T10:26:59.569Z,42.95
2023-05-14T10:29:37.802Z,42.48
2023-05-14T10:32:07.146Z,42.51
2023-05-14T10:34:41.297Z,43.34
2023-05-14T10:37:10.417Z,42.56
2023-05-14T10:40:08.825Z,42.13
2023-05-14T10:42:43.595Z,41.94
2023-05-14T10:45:27.030Z,42.24
2023-05-14T10:47:54.140Z,42.44
2023-05-14T10:51:08.585Z,41.79
2023-05-14T10:54:28.979Z,42.21
2023-05-14T10:56:59.489Z,42.23
2023-05-14T10:59:29.435Z,41.40
2023-05-14T11:01:59.486Z,41.42
2023-05-14T11:04:31.203Z,41.95
2023-05-14T11:06:59.515Z,41.23
2023-05-14T11:09:27.009Z,39.76
2023-05-14T11:11:54.616Z,40.50
2023-05-14T11:14:22.859Z,40.45
2023-05-14T11:16:50.477Z,41.15
2023-05-14T11:19:21.967Z,40.44
2023-05-14T11:21:48.717Z,40.53
2023-05-14T11:24:15.878Z,39.31
2023-05-14T11:26:42.876Z,38.34
2023-05-14T11:29:10.762Z,38.40
2023-05-14T11:31:37.872Z,38.23
2023-05-14T11:34:07.422Z,39.38
2023-05-14T11:36:36.810Z,38.65
2023-05-14T11:39:03.732Z,39.31
2023-05-14T11:41:31.446Z,39.41
2023-05-14T11:43:58.899Z,40.11
2023-05-14T11:46:26.283Z,39.71
2023-05-14T11:48:53.250Z,39.28
2023-05-14T11:51:21.424Z,39.22
2023-05-14T11:53:48.706Z,39.12
2023-05-14T11:56:16.048Z,40.40
2023-05-14T11:58:48.379Z,38.80
2023-05-14T12:01:15.904Z,39.16
2023-05-14T12:03:43.351Z,39.02
2023-05-14T12:06:10.277Z,38.46
2023-05-14T12:08:37.739Z,37.99
2023-05-14T12:11:04.643Z,37.93
2023-05-14T12:13:32.671Z,38.10
2023-05-14T12:16:02.470Z,37.49
2023-05-14T12:18:31.490Z,37.85
2023-05-14T12:21:08.538Z,37.49
2023-05-14T12:23:35.634Z,37.05
2023-05-14T12:26:06.380Z,35.92
2023-05-14T12:28:36.917Z,36.03
2023-05-14T12:31:05.056Z,37.56
2023-05-14T12:33:32.099Z,38.06
2023-05-14T12:36:19.891Z,37.96
2023-05-14T12:38:47.975Z,37.93
2023-05-14T12:41:15.047Z,37.01
2023-05-14T12:43:44.357Z,36.54
2023-05-14T12:46:11.431Z,36.50
2023-05-14T12:48:38.408Z,36.60
2023-05-14T12:51:05.273Z,36.80
2023-05-14T12:53:32.340Z,37.19
2023-05-14T12:55:59.565Z,37.69
2023-05-14T12:58:26.727Z,36.90
2023-05-14T13:00:53.840Z,36.78
2023-05-14T13:03:21.263Z,36.38
2023-05-14T13:05:48.390Z,37.77
2023-05-14T13:08:17.914Z,37.63
2023-05-14T13:10:45.293Z,36.14
2023-05-14T13:13:12.480Z,36.73
2023-05-14T13:15:39.430Z,37.99
2023-05-14T13:18:06.864Z,37.97
2023-05-14T13:20:34.466Z,36.90
2023-05-14T13:23:01.428Z,37.01
2023-05-14T13:25:28.578Z,37.59
2023-05-14T13:27:56.080Z,37.36
2023-05-14T13:30:22.964Z,36.88
2023-05-14T13:32:50.149Z,37.31
2023-05-14T13:35:17.530Z,37.51
2023-05-14T13:37:44.417Z,37.77
2023-05-14T13:40:11.695Z,37.11
2023-05-14T13:42:39.925Z,37.17
2023-05-14T13:45:07.459Z,38.51
2023-05-14T13:47:34.583Z,37.66
2023-05-14T13:50:01.398Z,37.61
2023-05-14T13:52:28.593Z,37.87
2023-05-14T13:54:56.491Z,37.84
2023-05-14T13:57:23.542Z,38.12
2023-05-14T13:59:50.778Z,38.12
2023-05-14T14:02:17.997Z,38.60
2023-05-14T14:04:44.930Z,37.22
2023-05-14T14:07:11.866Z,36.94
2023-05-14T14:09:38.884Z,36.63
2023-05-14T14:12:06.804Z,37.22
2023-05-14T14:14:33.738Z,36.92
2023-05-14T14:17:01.076Z,37.32
2023-05-14T14:19:27.911Z,37.18
2023-05-14T14:21:54.821Z,37.04
2023-05-14T14:24:21.889Z,36.96
2023-05-14T14:26:48.712Z,36.61
2023-05-14T14:29:15.619Z,36.51
2023-05-14T14:31:43.827Z,36.87
2023-05-14T14:34:10.972Z,36.54
2023-05-14T14:36:38.194Z,36.58
2023-05-14T14:39:05.269Z,36.50
2023-05-14T14:41:32.244Z,36.76
2023-05-14T14:43:59.234Z,36.24
2023-05-14T14:46:26.550Z,36.64
2023-05-14T14:48:53.514Z,36.05
2023-05-14T14:51:20.570Z,37.32
2023-05-14T14:53:47.843Z,36.69
2023-05-14T14:56:14.722Z,36.45
2023-05-14T14:58:41.718Z,36.52
2023-05-14T15:01:08.729Z,37.04
2023-05-14T15:03:36.467Z,36.24
2023-05-14T15:06:03.384Z,36.41
2023-05-14T15:08:30.280Z,36.13
2023-05-14T15:10:57.876Z,37.19
2023-05-14T15:13:25.935Z,37.32
2023-05-14T15:15:53.154Z,38.17
2023-05-14T15:18:20.645Z,38.71
2023-05-14T15:20:47.736Z,38.57
2023-05-14T15:23:14.765Z,39.26
2023-05-14T15:25:41.746Z,39.27
2023-05-14T15:28:08.803Z,40.06
2023-05-14T15:30:35.903Z,39.78
2023-05-14T15:33:02.952Z,40.19
2023-05-14T15:35:30.020Z,41.05
2023-05-14T15:37:59.918Z,41.70
2023-05-14T15:40:29.681Z,41.84
2023-05-14T15:42:56.708Z,42.65
2023-05-14T15:45:23.674Z,42.97
2023-05-14T15:47:51.196Z,42.79
2023-05-14T15:50:17.970Z,43.27
2023-05-14T15:52:44.928Z,43.45
2023-05-14T15:55:12.050Z,43.64
2023-05-14T15:57:39.310Z,44.29
2023-05-14T16:00:12.805Z,44.47
2023-05-14T16:06:23.133Z,45.29
2023-05-14T16:08:50.115Z,45.35
2023-05-14T16:11:17.272Z,45.90
2023-05-14T16:16:30.653Z,46.37
2023-05-14T16:18:57.847Z,46.38
2023-05-14T16:21:24.699Z,46.88
2023-05-14T16:24:03.755Z,46.64
2023-05-14T16:27:21.185Z,46.73
2023-05-14T16:29:48.667Z,46.94
2023-05-14T16:32:16.009Z,47.02
2023-05-14T16:34:49.786Z,46.86
2023-05-14T16:37:17.663Z,47.15
2023-05-14T16:39:44.817Z,46.95
2023-05-14T16:42:11.925Z,47.25
2023-05-14T16:44:39.162Z,47.26
2023-05-14T16:47:06.586Z,47.41
2023-05-14T16:49:33.863Z,47.70
2023-05-14T16:52:00.828Z,47.61
2023-05-14T16:54:27.872Z,47.47
2023-05-14T16:56:54.678Z,48.05
2023-05-14T16:59:21.731Z,47.50
2023-05-14T17:01:48.674Z,47.49
2023-05-14T17:04:16.158Z,47.28
2023-05-14T17:06:43.315Z,47.86
2023-05-14T17:09:10.383Z,48.31
2023-05-14T17:11:43.560Z,48.14
2023-05-14T17:15:05.687Z,48.18
2023-05-14T17:17:33.912Z,48.53
2023-05-14T17:20:01.043Z,48.62
2023-05-14T17:22:27.991Z,48.32
2023-05-14T17:24:54.977Z,48.95
2023-05-14T17:27:22.060Z,49.39
2023-05-14T17:29:51.198Z,49.12
2023-05-14T17:32:18.569Z,48.89
2023-05-14T17:34:45.601Z,49.27
2023-05-14T17:37:12.878Z,48.98
2023-05-14T17:39:39.900Z,49.08
2023-05-14T17:42:07.028Z,49.53
2023-05-14T17:44:34.225Z,49.96
2023-05-14T17:47:01.522Z,50.81
2023-05-14T17:49:28.780Z,49.87
2023-05-14T17:52:56.808Z,50.30
2023-05-14T17:57:02.240Z,50.57
2023-05-14T17:59:29.867Z,50.63
2023-05-14T18:01:56.868Z,50.30
2023-05-14T18:04:23.710Z,50.60
2023-05-14T18:06:50.930Z,50.74
2023-05-14T18:09:17.937Z,50.96
2023-05-14T18:14:51.882Z,51.22
2023-05-14T18:17:18.952Z,51.40
2023-05-14T18:19:46.102Z,51.71
2023-05-14T18:22:13.487Z,51.62
2023-05-14T18:24:40.670Z,51.81
2023-05-14T18:27:08.323Z,52.33
2023-05-14T18:29:35.241Z,52.19
2023-05-14T18:32:02.151Z,52.62
2023-05-14T18:38:54.751Z,53.40
2023-05-14T18:41:21.768Z,53.64
2023-05-14T18:43:48.649Z,54.29
2023-05-14T18:46:15.807Z,54.32
2023-05-14T18:48:42.912Z,54.65
2023-05-14T18:51:11.375Z,55.05
2023-05-14T18:53:38.581Z,55.19
2023-05-14T18:56:05.572Z,55.15
2023-05-14T18:58:32.732Z,55.43
2023-05-14T19:00:59.757Z,55.57
2023-05-14T19:03:26.986Z,55.97
2023-05-14T19:05:54.406Z,56.15
2023-05-14T19:08:21.353Z,55.92
2023-05-14T19:10:48.695Z,56.33
2023-05-14T19:13:19.466Z,56.75
2023-05-14T19:16:09.356Z,57.05
2023-05-14T19:18:36.346Z,57.25
2023-05-14T19:21:12.401Z,57.73
2023-05-14T19:23:39.462Z,57.60
2023-05-14T19:26:07.335Z,57.52
2023-05-14T19:28:34.338Z,58.11
2023-05-14T19:31:01.305Z,58.26
2023-05-14T19:33:31.880Z,58.47
2023-05-14T19:35:59.791Z,58.92
2023-05-14T19:38:26.717Z,58.84
2023-05-14T19:40:59.979Z,58.59
2023-05-14T19:43:33.877Z,58.96
2023-05-14T19:46:01.632Z,59.23
2023-05-14T19:48:33.583Z,59.21
2023-05-14T19:51:32.534Z,59.16
2023-05-14T19:54:04.436Z,59.11
2023-05-14T19:56:34.641Z,59.49
2023-05-14T19:59:02.593Z,59.53
2023-05-14T20:01:29.672Z,59.64
2023-05-14T20:03:56.711Z,60.01
2023-05-14T20:06:23.592Z,59.78
2023-05-14T20:08:51.562Z,59.97
2023-05-14T20:12:36.722Z,60.88
2023-05-14T20:14:22.420Z,60.05
2023-05-14T20:16:52.533Z,60.17
2023-05-14T20:19:21.493Z,60.13
2023-05-14T20:21:48.766Z,60.20
2023-05-14T20:24:15.646Z,60.03
2023-05-14T20:27:08.587Z,59.95
2023-05-14T20:29:51.388Z,60.27
2023-05-14T20:36:05.238Z,60.36
2023-05-14T20:38:34.448Z,60.46
2023-05-14T20:41:10.913Z,60.76
2023-05-14T20:43:37.904Z,60.96
2023-05-14T20:46:07.294Z,61.28
2023-05-14T20:48:34.422Z,61.75
2023-05-14T20:51:01.929Z,61.66
2023-05-14T20:53:28.882Z,61.65
2023-05-14T20:55:56.269Z,61.98
2023-05-14T20:58:23.214Z,62.50
2023-05-14T21:00:50.344Z,62.74
2023-05-14T21:03:17.576Z,62.72
2023-05-14T21:05:47.370Z,62.58
2023-05-14T21:08:14.165Z,62.61
2023-05-14T21:10:41.094Z,62.86
2023-05-14T21:13:08.281Z,63.34
2023-05-14T21:15:35.248Z,63.75
2023-05-14T21:18:02.260Z,64.28
2023-05-14T21:20:29.141Z,64.40
2023-05-14T21:22:56.228Z,64.72
2023-05-14T21:25:23.334Z,64.97
2023-05-14T21:27:50.730Z,65.32
2023-05-14T21:30:17.700Z,65.25
2023-05-14T21:32:44.728Z,65.87
2023-05-14T21:35:11.756Z,66.25
2023-05-14T21:37:39.976Z,66.31
2023-05-14T21:40:12.337Z,66.82
2023-05-14T21:42:42.337Z,67.80
2023-05-14T21:45:09.607Z,67.58
2023-05-14T21:47:37.388Z,67.89
2023-05-14T21:50:05.219Z,67.70
2023-05-14T21:52:32.230Z,67.96
2023-05-14T21:54:59.111Z,68.60
2023-05-14T21:57:28.384Z,68.87
2023-05-14T21:59:55.824Z,69.09
2023-05-14T22:02:23.082Z,69.44
2023-05-14T22:04:50.479Z,69.65
2023-05-14T22:07:17.675Z,69.87
2023-05-14T22:09:44.663Z,70.07
2023-05-14T22:12:11.628Z,71.40
2023-05-14T22:14:38.555Z,71.86
2023-05-14T22:17:05.658Z,72.32
2023-05-14T22:19:33.061Z,72.85
2023-05-14T22:22:00.361Z,72.98
2023-05-14T22:24:27.372Z,73.43
2023-05-14T22:26:54.716Z,73.94
2023-05-14T22:29:21.601Z,74.26
2023-05-14T22:31:48.657Z,74.52
2023-05-14T22:34:16.122Z,74.42
2023-05-14T22:36:42.946Z,74.06
2023-05-14T22:39:11.464Z,73.66
2023-05-14T22:41:40.557Z,73.34
2023-05-14T22:44:07.525Z,73.44
2023-05-14T22:46:34.762Z,74.01
2023-05-14T22:49:01.662Z,74.07
2023-05-14T22:51:28.648Z,73.66
2023-05-14T22:53:55.679Z,73.18
2023-05-14T22:56:22.682Z,73.41
2023-05-14T22:58:49.650Z,74.22
2023-05-14T23:01:16.613Z,75.28
2023-05-14T23:03:43.461Z,76.24
2023-05-14T23:06:13.707Z,75.90
2023-05-14T23:08:41.222Z,76.92
2023-05-14T23:11:08.104Z,77.06
2023-05-14T23:13:35.584Z,76.23
2023-05-14T23:16:02.732Z,74.60
2023-05-14T23:18:30.920Z,73.91
2023-05-14T23:20:58.178Z,74.26
2023-05-14T23:23:25.334Z,73.75
2023-05-14T23:25:52.427Z,73.93
2023-05-14T23:28:19.748Z,73.78
2023-05-14T23:30:46.556Z,73.73
2023-05-14T23:33:13.594Z,73.43
2023-05-14T23:35:40.839Z,73.07
2023-05-14T23:38:08.265Z,73.04
2023-05-14T23:40:35.557Z,73.04
2023-05-14T23:43:02.542Z,72.60
2023-05-14T23:45:30.382Z,73.01
2023-05-14T23:47:58.552Z,72.99
2023-05-14T23:50:25.752Z,72.65
2023-05-14T23:52:53.876Z,72.60
2023-05-14T23:55:20.874Z,72.48
2023-05-14T23:57:49.062Z,72.75
